Laird Hill, Texas
Current Conditions -  °F | °C
As of 3:53 AM on Thursday 29 Jan 2015 (Local Time) from KGGG Reporting Station
Clear Clear  
Wind Chill: 56°   Ceiling: Unl
Heat Index: 56°   Visibility: 10mi
Dew Point: 48°   Wind: 9mph
Humidity: 75%   Direction: 210°SSW
Pressure: 30.1"   Gusts: NA
Location:  32.35°N, 94.91°W
Report Text: KGGG 290953Z AUTO 21008KT 10SM CLR 13/09 A3010 RMK AO2 SLP188 T01330089 TSNO
Loading
Personal Weather Stations






























Interactive Weather Map New forecast layout! Learn more

10-Day Weather Forecast

Advertisements
Track Severe Weather on mobile